Forside
METAR-TAF:

METAR-TAF

Lufthavne :

Teheran, Iran

Breddekreds: 35-41N, længdekreds: 051-21E, højde: 1204 m

Aktuelle vejr

Denne rapport blev lavet for 16 minutter siden, kl. 11:30 UTC
Vind 8 kt fra syd
Temperatur 20°C
Fugtighed 37%
Tryk 1024 hPa
Sigt 10 km eller mere
Nogle få skyer i en højde af 3500 ft

METAR: OIII 171130Z 19008KT 9999 FEW035 20/05 Q1023 A3023

Tid: 15:16 (11:46 UTC)

Vejrudsigter

Denne rapport blev lavet for 16 minutter siden, kl. 11:30 UTC
Foreløbig gælder fra 17 på 12 UTC til 18 på 18 UTC
Vind 10 kt fra vestnordvest
Sigt: 7000 m
Nogle få skyer i en højde af 3000 ft
Spredte skyer i en højde af 10000 ft
Midlertidig
fra 17 på 12 UTC til 17 på 18 UTC
Vind 17 kt fra vest
Nogle få skyer i en højde af 3500 ft, Cumulonimbus.
Spredte skyer i en højde af 4000 ft
Brudte skyer i en højde af 9000 ft

TAF: OIII 171130Z 1712/1818 30005MPS 7000 FEW030 SCT100 TEMPO 1712/1718 26009MPS FEW035CB SCT040 BKN090

Vejrobservationer og prognoser fra mere end 4000 lufthavne (METAR og TAF).

De gule og røde prikker repræsenterer de meteorologiske stationer.

Flyt musen over at se navnet på stationen.

Så klik over at se vejr observationer og prognoser.

At skifte det kort: Klik på de grønne knapper med et sort kors for at zoome ind; på den grønne knap med en bindestreg for at zoome ud; eller på de grønne pile for tilstødende kort.


METAR-TAF: